Time;durP1;ratioP1;P1;durP2;ratioP2;P2;SDS_P1;SDS_P2;PMS_P1;PMS_P2;Temp;Humidity;BMP_temperature;BMP_pressure;BME280_temperature;BME280_humidity;BME280_pressure;Samples;Min_cycle;Max_cycle;Signal;HPM_P1;HPM_P2
2023/05/08 00:02:17;;;;;;;9.23;7.17;;;;;;;15.31;100.00;96514.69;5033714;28;20048;-87
2023/05/08 00:04:42;;;;;;;9.67;7.30;;;;;;;15.24;100.00;96513.78;5054532;28;20763;-87
2023/05/08 00:07:09;;;;;;;9.57;6.87;;;;;;;15.41;100.00;96519.72;5050941;28;20029;-87
2023/05/08 00:09:35;;;;;;;9.00;6.93;;;;;;;15.42;100.00;96519.53;5041906;28;20022;-87
2023/05/08 00:12:00;;;;;;;10.27;6.77;;;;;;;15.35;100.00;96515.16;5028566;28;20094;-87
2023/05/08 00:14:26;;;;;;;9.80;7.47;;;;;;;15.36;100.00;96514.13;5052299;28;20039;-87
2023/05/08 00:16:56;;;;;;;10.03;7.60;;;;;;;15.35;100.00;96513.31;5033645;28;20031;-88
2023/05/08 00:19:21;;;;;;;11.53;8.23;;;;;;;15.44;100.00;96514.06;5066209;28;20040;-88
2023/05/08 00:21:48;;;;;;;10.30;8.87;;;;;;;15.33;100.00;96512.69;5033328;28;20037;-87
2023/05/08 00:24:13;;;;;;;9.87;7.67;;;;;;;15.28;100.00;96510.56;5036295;28;20037;-88
2023/05/08 00:26:40;;;;;;;10.57;8.73;;;;;;;15.34;100.00;96511.69;5024881;28;20095;-88
2023/05/08 00:29:06;;;;;;;10.53;8.63;;;;;;;15.38;100.00;96517.44;5043124;28;20028;-87
2023/05/08 00:31:31;;;;;;;10.20;7.67;;;;;;;15.11;100.00;96519.69;5035098;28;20028;-87
2023/05/08 00:33:57;;;;;;;10.83;8.00;;;;;;;15.12;100.00;96517.88;5064062;28;20091;-87
2023/05/08 00:36:23;;;;;;;9.93;8.50;;;;;;;15.16;100.00;96519.16;5058007;28;20040;-87
2023/05/08 00:38:48;;;;;;;9.77;8.77;;;;;;;15.14;100.00;96524.63;5028166;28;20116;-88
2023/05/08 00:41:14;;;;;;;12.73;9.53;;;;;;;15.16;100.00;96517.34;5047012;28;20066;-87
2023/05/08 00:43:40;;;;;;;13.23;8.03;;;;;;;14.99;100.00;96521.97;5039285;28;20036;-87
2023/05/08 00:46:08;;;;;;;11.10;8.93;;;;;;;15.01;100.00;96524.44;5036484;28;20067;-88
2023/05/08 00:48:59;;;;;;;10.87;9.13;;;;;;;15.22;100.00;96526.38;5032322;28;20029;-88
2023/05/08 00:51:26;;;;;;;12.33;8.83;;;;;;;15.31;100.00;96528.75;5025966;28;20064;-87
2023/05/08 00:53:52;;;;;;;14.33;10.13;;;;;;;15.15;100.00;96526.28;5027961;28;20060;-88
2023/05/08 00:56:21;;;;;;;11.47;9.67;;;;;;;15.21;100.00;96520.25;5034731;28;20398;-88
2023/05/08 00:58:47;;;;;;;14.90;9.43;;;;;;;15.24;100.00;96519.06;5047876;28;20033;-87
2023/05/08 01:01:14;;;;;;;14.63;10.23;;;;;;;15.33;100.00;96516.16;5030655;28;20029;-87
2023/05/08 01:03:41;;;;;;;12.33;10.67;;;;;;;15.40;100.00;96512.78;5016624;28;20479;-88
2023/05/08 01:06:07;;;;;;;13.33;11.57;;;;;;;15.31;100.00;96510.22;5031958;28;20033;-87
2023/05/08 01:08:33;;;;;;;12.80;11.27;;;;;;;15.35;100.00;96515.16;5016007;28;20068;-88
2023/05/08 01:11:46;;;;;;;13.00;11.60;;;;;;;15.25;100.00;96513.59;5032463;28;20029;-87
2023/05/08 01:14:38;;;;;;;13.87;12.20;;;;;;;15.28;100.00;96510.56;5010771;28;20042;-87
2023/05/08 01:17:22;;;;;;;13.43;12.03;;;;;;;15.42;100.00;96516.06;5031842;28;20025;-88
2023/05/08 01:19:58;;;;;;;;;;;;;;;15.36;100.00;96516.78;5031516;28;20061;-87
2023/05/08 01:22:46;;;;;;;12.87;11.57;;;;;;;15.21;100.00;96522.09;5010484;28;19913;-87
2023/05/08 01:25:47;;;;;;;13.60;11.87;;;;;;;15.39;100.00;96521.72;5022193;28;20033;-87
2023/05/08 01:29:09;;;;;;;13.60;11.40;;;;;;;15.35;100.00;96515.97;5011238;28;20116;-88
2023/05/08 01:31:34;;;;;;;14.27;12.77;;;;;;;15.36;100.00;96527.38;4923878;29;20053;-88
2023/05/08 01:34:12;;;;;;;13.03;11.73;;;;;;;15.26;100.00;96519.72;4924518;29;20622;-87
2023/05/08 01:36:52;;;;;;;12.10;10.90;;;;;;;15.31;100.00;96522.63;4990473;28;20038;-88
2023/05/08 01:39:25;;;;;;;13.37;11.23;;;;;;;15.31;100.00;96525.28;5027147;28;20041;-88
2023/05/08 01:42:19;;;;;;;13.10;11.73;;;;;;;15.15;100.00;96525.44;5011222;28;20036;-87
2023/05/08 01:44:48;;;;;;;;;;;;;;;15.24;100.00;96524.38;5009662;28;20399;-88
2023/05/08 01:47:15;;;;;;;11.43;10.23;;;;;;;15.27;100.00;96524.84;5035426;28;19920;-87
2023/05/08 01:49:45;;;;;;;11.23;10.03;;;;;;;15.33;100.00;96521.47;5018707;28;20140;-88
2023/05/08 01:52:33;;;;;;;14.77;10.43;;;;;;;15.23;100.00;96528.84;5028986;28;20049;-88
2023/05/08 01:55:07;;;;;;;11.30;9.90;;;;;;;15.26;100.00;96531.16;5009230;28;20513;-88
2023/05/08 01:57:48;;;;;;;11.33;10.00;;;;;;;15.40;100.00;96532.16;5041863;28;20048;-87
2023/05/08 02:00:16;;;;;;;13.00;9.43;;;;;;;15.37;100.00;96529.88;5032765;28;20025;-88
2023/05/08 02:02:43;;;;;;;12.53;9.87;;;;;;;15.33;100.00;96524.13;5031091;28;20030;-88
2023/05/08 02:05:11;;;;;;;11.23;10.03;;;;;;;15.26;100.00;96523.19;5019335;28;20029;-88
2023/05/08 02:07:42;;;;;;;12.53;10.10;;;;;;;15.27;100.00;96532.78;5035797;28;20034;-88
2023/05/08 02:13:58;;;;;;;12.10;10.73;;;;;;;15.25;100.00;96537.44;5052106;28;20019;-86
2023/05/08 02:16:43;;;;;;;13.00;10.57;;;;;;;15.01;100.00;96538.47;5055599;28;20034;-88
2023/05/08 02:19:10;;;;;;;13.83;10.60;;;;;;;15.04;100.00;96537.31;5030249;28;20030;-88
2023/05/08 02:21:37;;;;;;;14.53;11.57;;;;;;;15.04;100.00;96537.31;5033126;28;20029;-87
2023/05/08 02:24:05;;;;;;;14.83;11.07;;;;;;;14.93;100.00;96532.47;5020762;28;20022;-87
2023/05/08 02:26:33;;;;;;;12.13;10.73;;;;;;;14.79;100.00;96539.38;5051364;28;20037;-88
2023/05/08 02:29:04;;;;;;;13.50;11.30;;;;;;;14.81;100.00;96535.50;5036909;28;20029;-88
2023/05/08 02:31:30;;;;;;;15.43;12.97;;;;;;;14.87;100.00;96533.16;5031993;28;20037;-87
2023/05/08 02:33:59;;;;;;;13.10;11.70;;;;;;;14.83;100.00;96536.16;5015250;28;20030;-88
2023/05/08 02:36:48;;;;;;;13.93;12.50;;;;;;;14.90;100.00;96535.47;5022168;28;20076;-87
2023/05/08 02:39:30;;;;;;;13.63;12.07;;;;;;;14.90;100.00;96538.09;5034798;28;20533;-88
2023/05/08 02:41:56;;;;;;;14.53;13.03;;;;;;;14.89;100.00;96533.78;5060920;28;20049;-88
2023/05/08 02:44:23;;;;;;;13.97;12.47;;;;;;;14.89;100.00;96533.78;5038421;28;20021;-87
2023/05/08 02:46:57;;;;;;;15.57;13.80;;;;;;;15.07;100.00;96539.59;5040410;28;20036;-88
2023/05/08 02:49:49;;;;;;;15.03;11.93;;;;;;;15.09;100.00;96543.72;5016336;28;20049;-87
2023/05/08 02:52:42;;;;;;;15.10;13.07;;;;;;;15.09;100.00;96538.44;5017901;28;20040;-88
2023/05/08 02:55:21;;;;;;;13.07;11.68;;;;;;;15.04;100.00;96540.78;5035948;28;20083;-88
2023/05/08 02:58:04;;;;;;;14.30;12.77;;;;;;;15.11;100.00;96540.88;5023420;28;20034;-88
2023/05/08 03:00:44;;;;;;;13.48;11.43;;;;;;;15.19;100.00;96542.63;5043955;28;20043;-88
2023/05/08 03:03:21;;;;;;;13.10;11.43;;;;;;;15.27;100.00;96540.72;5015640;28;20060;-88
2023/05/08 03:06:10;;;;;;;14.80;12.83;;;;;;;15.20;100.00;96536.34;5010483;28;20111;-88
2023/05/08 03:08:41;;;;;;;13.27;11.87;;;;;;;15.03;100.00;96544.44;5041805;28;20041;-88
2023/05/08 03:11:15;;;;;;;13.27;11.87;;;;;;;15.08;100.00;96541.25;5016361;28;20038;-88
2023/05/08 03:13:41;;;;;;;;;;;;;;;14.88;100.00;96545.41;5019787;28;20069;-88
2023/05/08 03:16:14;;;;;;;13.33;11.93;;;;;;;14.74;100.00;96537.22;5034039;28;19939;-88
2023/05/08 03:18:52;;;;;;;10.68;9.52;;;;;;;14.83;100.00;96538.81;5031423;28;20072;-88
2023/05/08 03:21:20;;;;;;;14.63;12.30;;;;;;;14.71;100.00;96536.75;5033649;28;20112;-88
2023/05/08 03:23:58;;;;;;;14.87;12.63;;;;;;;14.75;100.00;96533.56;5018721;28;20400;-88
2023/05/08 03:26:28;;;;;;;14.63;13.03;;;;;;;14.56;100.00;96531.44;5028844;28;20072;-88
2023/05/08 03:28:55;;;;;;;16.07;13.57;;;;;;;14.47;100.00;96535.09;5022677;28;20036;-87
2023/05/08 03:31:26;;;;;;;16.13;12.87;;;;;;;14.30;100.00;96548.41;5017916;28;20037;-88
2023/05/08 03:33:53;;;;;;;16.13;14.23;;;;;;;14.54;100.00;96549.28;5036040;28;20029;-87
2023/05/08 03:36:25;;;;;;;16.43;14.73;;;;;;;14.47;100.00;96549.13;5015816;28;20554;-87
2023/05/08 03:38:52;;;;;;;16.63;14.30;;;;;;;14.56;100.00;96547.31;5038221;28;20083;-88
2023/05/08 03:41:21;;;;;;;15.87;13.97;;;;;;;14.55;100.00;96549.13;5024679;28;20131;-88
2023/05/08 03:43:47;;;;;;;16.80;14.80;;;;;;;14.51;100.00;96550.47;5022532;28;20087;-88
2023/05/08 03:46:13;;;;;;;16.40;14.17;;;;;;;14.58;100.00;96550.59;5029684;28;20029;-88
2023/05/08 03:48:40;;;;;;;18.30;14.37;;;;;;;14.79;100.00;96550.78;5017988;28;20033;-88
2023/05/08 03:51:20;;;;;;;17.97;14.83;;;;;;;14.55;100.00;96554.44;5036902;28;20056;-88
2023/05/08 03:53:46;;;;;;;20.40;15.93;;;;;;;14.55;100.00;96556.22;5018228;28;20763;-87
2023/05/08 03:56:13;;;;;;;17.67;14.80;;;;;;;14.49;100.00;96556.91;5023930;28;20028;-88
2023/05/08 03:59:16;;;;;;;19.20;15.40;;;;;;;14.50;100.00;96553.25;5024943;28;20021;-88
2023/05/08 04:01:51;;;;;;;21.53;16.40;;;;;;;14.33;100.00;96555.19;5027428;28;20038;-88
2023/05/08 04:04:23;;;;;;;18.40;15.30;;;;;;;14.42;100.00;96551.50;5031230;28;20553;-87
2023/05/08 04:07:14;;;;;;;19.00;15.30;;;;;;;14.31;100.00;96550.06;5026058;28;20030;-87
2023/05/08 04:09:58;;;;;;;18.90;15.80;;;;;;;14.50;100.00;96558.56;5028934;28;20038;-88
2023/05/08 04:12:50;;;;;;;20.10;16.63;;;;;;;14.56;100.00;96560.53;5029698;28;20041;-87
2023/05/08 04:15:28;;;;;;;21.37;15.93;;;;;;;14.57;100.00;96560.34;5026831;28;20038;-88
2023/05/08 04:18:02;;;;;;;21.93;17.27;;;;;;;14.56;100.00;96565.84;5018640;28;20048;-88
2023/05/08 04:20:32;;;;;;;21.92;17.15;;;;;;;14.33;100.00;96574.53;5026044;28;20037;-87
2023/05/08 04:22:58;;;;;;;20.63;16.80;;;;;;;14.48;100.00;96571.13;5034628;28;20060;-88
2023/05/08 04:25:25;;;;;;;22.30;17.30;;;;;;;14.34;100.00;96576.16;5015209;28;20021;-88
2023/05/08 04:27:52;;;;;;;24.87;17.87;;;;;;;14.62;100.00;96573.06;5036474;28;20044;-88
2023/05/08 04:30:24;;;;;;;20.13;17.43;;;;;;;14.54;100.00;96571.28;5021723;28;20029;-87
2023/05/08 04:32:54;;;;;;;19.47;16.87;;;;;;;14.39;100.00;96576.50;5012690;28;20483;-87
2023/05/08 04:35:20;;;;;;;21.73;17.67;;;;;;;14.12;100.00;96574.31;5016281;28;20033;-87
2023/05/08 04:37:49;;;;;;;21.70;17.27;;;;;;;14.27;100.00;96577.88;5043293;28;20111;-89
2023/05/08 04:40:19;;;;;;;21.17;16.73;;;;;;;14.44;100.00;96575.13;5008392;28;20029;-88
2023/05/08 04:42:46;;;;;;;21.90;17.20;;;;;;;14.34;100.00;96576.16;5009972;28;20036;-88
2023/05/08 04:45:13;;;;;;;22.27;19.97;;;;;;;14.41;100.00;96578.94;5009357;28;20057;-87
2023/05/08 04:47:39;;;;;;;20.33;17.97;;;;;;;14.44;100.00;96580.44;5023980;28;20030;-85
2023/05/08 04:50:05;;;;;;;23.20;17.93;;;;;;;14.43;100.00;96581.44;5017945;28;20027;-89
2023/05/08 04:52:33;;;;;;;24.80;18.77;;;;;;;14.56;100.00;96579.06;5020766;28;20324;-88
2023/05/08 04:54:59;;;;;;;22.03;18.23;;;;;;;14.45;100.00;96584.72;5019366;28;20040;-88
2023/05/08 04:57:26;;;;;;;20.87;17.37;;;;;;;14.44;100.00;96586.53;5021557;28;20048;-87
2023/05/08 04:59:51;;;;;;;20.60;16.17;;;;;;;14.53;100.00;96590.00;5035087;28;20029;-88
2023/05/08 05:02:17;;;;;;;23.77;18.17;;;;;;;14.37;100.00;96590.88;5035752;28;20498;-88
2023/05/08 05:04:44;;;;;;;24.53;17.97;;;;;;;14.41;100.00;96596.66;5010429;28;20033;-88
2023/05/08 05:07:09;;;;;;;20.33;17.27;;;;;;;14.55;100.00;96594.13;5025421;28;20037;-87
2023/05/08 05:09:40;;;;;;;19.27;16.50;;;;;;;14.55;100.00;96598.56;5041708;28;20059;-87
2023/05/08 05:12:07;;;;;;;20.70;16.47;;;;;;;14.26;100.00;96594.75;5020433;28;20119;-88
2023/05/08 05:14:34;;;;;;;25.40;18.33;;;;;;;14.49;100.00;96591.31;5018344;28;20017;-88
2023/05/08 05:17:00;;;;;;;21.10;17.13;;;;;;;14.41;100.00;96596.66;5019505;28;20035;-87
2023/05/08 05:19:26;;;;;;;21.13;16.80;;;;;;;14.06;100.00;96604.09;5036839;28;20434;-88
2023/05/08 05:21:51;;;;;;;23.03;18.03;;;;;;;14.07;100.00;96603.91;5023578;28;20033;-87
2023/05/08 05:24:20;;;;;;;21.73;17.80;;;;;;;14.25;100.00;96608.97;5012391;28;20022;-87
2023/05/08 05:26:46;;;;;;;22.33;17.70;;;;;;;14.50;100.00;96604.41;5016717;28;20057;-87
2023/05/08 05:29:12;;;;;;;22.07;19.00;;;;;;;14.41;100.00;96600.13;5026086;28;20106;-87
2023/05/08 05:31:39;;;;;;;22.30;17.60;;;;;;;14.52;100.00;96606.84;5030232;28;20180;-87
2023/05/08 05:34:05;;;;;;;22.37;18.20;;;;;;;14.64;100.00;96602.81;5026452;28;20555;-87
2023/05/08 05:36:32;;;;;;;21.83;17.60;;;;;;;14.41;100.00;96608.06;5041096;28;20040;-87
2023/05/08 05:39:00;;;;;;;23.33;17.83;;;;;;;14.29;100.00;96606.81;5022285;28;20021;-87
2023/05/08 05:41:31;;;;;;;21.07;16.50;;;;;;;14.51;100.00;96613.16;5014137;28;20053;-87
2023/05/08 05:43:57;;;;;;;19.90;16.40;;;;;;;14.50;100.00;96614.13;5030106;28;20061;-88
2023/05/08 05:46:29;;;;;;;21.70;16.37;;;;;;;14.59;100.00;96608.66;5026743;28;20022;-88
2023/05/08 05:48:55;;;;;;;21.23;17.40;;;;;;;14.68;100.00;96620.00;5040929;28;20040;-87
2023/05/08 05:51:21;;;;;;;20.13;16.40;;;;;;;14.56;100.00;96605.53;5021114;28;20033;-87
2023/05/08 05:53:47;;;;;;;18.63;15.80;;;;;;;14.73;100.00;96615.00;5015010;28;20032;-88
2023/05/08 05:56:12;;;;;;;21.20;18.03;;;;;;;14.78;100.00;96614.47;5046599;28;20816;-88
2023/05/08 05:58:43;;;;;;;20.67;16.73;;;;;;;14.74;100.00;96619.28;5052690;28;20047;-87
2023/05/08 06:01:31;;;;;;;22.97;18.00;;;;;;;14.94;100.00;96614.34;5032193;28;20052;-87
2023/05/08 06:03:56;;;;;;;22.20;17.37;;;;;;;14.92;100.00;96610.22;5013462;28;20032;-87
2023/05/08 06:06:23;;;;;;;24.93;21.70;;;;;;;14.88;100.00;96612.41;5049141;28;20093;-87
2023/05/08 06:08:49;;;;;;;24.60;21.17;;;;;;;14.92;100.00;96608.41;5032714;28;20033;-87
2023/05/08 06:11:18;;;;;;;28.00;22.63;;;;;;;15.20;100.00;96624.59;5032740;28;20484;-87
2023/05/08 06:13:44;;;;;;;22.33;18.70;;;;;;;15.07;100.00;96629.66;5045626;28;20033;-86
2023/05/08 06:16:10;;;;;;;21.70;17.03;;;;;;;15.11;100.00;96620.34;5040858;28;20044;-87
2023/05/08 06:18:40;;;;;;;16.73;14.93;;;;;;;15.33;100.00;96619.50;5048528;28;20037;-87
2023/05/08 06:21:10;;;;;;;19.77;15.73;;;;;;;15.36;100.00;96612.19;5029844;28;20039;-87
2023/05/08 06:23:36;;;;;;;17.50;15.53;;;;;;;15.31;100.00;96623.34;5014556;28;20025;-88
2023/05/08 06:26:03;;;;;;;22.00;16.17;;;;;;;15.30;100.00;96617.22;5034214;28;20171;-87
2023/05/08 06:28:36;;;;;;;17.07;15.27;;;;;;;15.64;100.00;96615.91;5030744;28;20028;-87
2023/05/08 06:31:08;;;;;;;13.48;11.18;;;;;;;15.81;100.00;96611.28;5024654;28;20038;-87
2023/05/08 06:33:34;;;;;;;16.10;12.95;;;;;;;15.16;100.00;96612.72;5030786;28;20025;-87
2023/05/08 06:36:00;;;;;;;17.73;14.57;;;;;;;15.47;100.00;96614.41;5018449;28;20111;-88
2023/05/08 06:38:25;;;;;;;15.80;13.50;;;;;;;15.28;100.00;96611.25;5015376;28;20030;-87
2023/05/08 06:40:54;;;;;;;15.70;12.87;;;;;;;14.91;100.00;96611.25;5029531;28;20029;-87
2023/05/08 06:43:23;;;;;;;13.70;11.67;;;;;;;14.79;100.00;96618.78;5017963;28;20479;-87
2023/05/08 06:45:51;;;;;;;18.10;11.77;;;;;;;14.75;100.00;96618.28;5047681;28;20490;-88
2023/05/08 06:48:18;;;;;;;14.73;11.37;;;;;;;14.41;100.00;96623.09;5041705;28;20083;-87
2023/05/08 06:50:46;;;;;;;14.07;11.23;;;;;;;14.57;100.00;96626.50;5032082;28;20554;-88
2023/05/08 06:53:17;;;;;;;14.80;12.03;;;;;;;14.45;100.00;96630.50;5029297;28;20044;-87
2023/05/08 06:55:51;;;;;;;13.53;10.60;;;;;;;14.66;100.00;96616.72;5007450;28;20033;-88
2023/05/08 06:58:30;;;;;;;15.30;11.40;;;;;;;14.24;100.00;96617.88;5023022;28;20050;-88
2023/05/08 07:00:56;;;;;;;13.07;11.13;;;;;;;14.42;100.00;96619.44;5039397;28;20147;-87
2023/05/08 07:03:30;;;;;;;16.20;12.53;;;;;;;14.70;100.00;96620.66;5017633;28;20491;-88
2023/05/08 07:05:56;;;;;;;14.53;11.77;;;;;;;14.90;100.00;96617.56;5005270;28;20029;-88
2023/05/08 07:08:28;;;;;;;13.17;11.70;;;;;;;15.01;100.00;96620.59;5016793;28;20067;-88
2023/05/08 07:11:08;;;;;;;12.45;9.82;;;;;;;14.76;100.00;96622.59;5024668;28;20506;-88
2023/05/08 07:13:35;;;;;;;13.43;11.50;;;;;;;15.21;100.00;96620.94;5062831;28;20125;-88
2023/05/08 07:16:01;;;;;;;16.60;12.47;;;;;;;15.12;100.00;96615.88;5027193;28;20083;-88
2023/05/08 07:18:27;;;;;;;15.70;13.47;;;;;;;15.49;100.00;96617.69;5014193;28;20022;-88
2023/05/08 07:20:53;;;;;;;15.27;13.23;;;;;;;15.41;100.00;96618.59;5012930;28;20059;-88
2023/05/08 07:23:22;;;;;;;16.20;12.93;;;;;;;14.95;100.00;96621.28;5036046;28;20073;-88
2023/05/08 07:25:48;;;;;;;15.33;12.00;;;;;;;15.72;100.00;96622.97;5032709;28;20045;-88
2023/05/08 07:28:19;;;;;;;12.60;11.13;;;;;;;15.71;100.00;96622.16;5059914;28;20034;-88
2023/05/08 07:30:46;;;;;;;13.50;11.93;;;;;;;15.58;100.00;96616.63;5057013;28;20039;-88
2023/05/08 07:33:12;;;;;;;13.97;12.40;;;;;;;15.72;100.00;96623.78;5023629;28;20029;-88
2023/05/08 07:35:38;;;;;;;15.00;11.03;;;;;;;15.26;100.00;96620.41;5014019;28;20619;-88
2023/05/08 07:38:07;;;;;;;15.43;11.97;;;;;;;15.62;100.00;96622.38;5027985;28;20021;-87
2023/05/08 07:40:36;;;;;;;14.20;11.87;;;;;;;15.75;100.00;96627.91;5032023;28;20072;-88
2023/05/08 07:43:02;;;;;;;12.80;10.90;;;;;;;15.21;100.00;96639.47;5016897;28;20093;-88
2023/05/08 07:45:28;;;;;;;14.03;11.83;;;;;;;15.57;100.00;96636.19;5033184;28;20072;-88
2023/05/08 07:48:00;;;;;;;13.47;11.80;;;;;;;15.60;100.00;96635.00;5020192;28;20077;-88
2023/05/08 07:50:32;;;;;;;12.57;11.10;;;;;;;15.68;100.00;96632.28;5007707;28;20044;-88
2023/05/08 07:52:57;;;;;;;16.07;12.77;;;;;;;15.83;100.00;96633.13;5038047;28;20029;-88
2023/05/08 07:55:23;;;;;;;13.57;11.57;;;;;;;15.06;100.00;96630.66;5018055;28;20030;-88
2023/05/08 07:57:49;;;;;;;13.07;11.33;;;;;;;15.21;100.00;96628.88;5024161;28;20080;-88
2023/05/08 08:00:15;;;;;;;13.30;11.33;;;;;;;15.19;100.00;96632.69;5047069;28;20014;-88
2023/05/08 08:02:43;;;;;;;12.87;10.97;;;;;;;15.74;100.00;96627.09;5019674;28;20029;-88
2023/05/08 08:05:09;;;;;;;18.43;12.67;;;;;;;15.61;100.00;96626.84;5040838;28;20036;-88
2023/05/08 08:07:35;;;;;;;14.23;12.47;;;;;;;15.97;100.00;96624.34;5038156;28;20040;-88
2023/05/08 08:10:05;;;;;;;14.00;11.93;;;;;;;16.14;100.00;96627.63;5022542;28;20031;-88
2023/05/08 08:12:36;;;;;;;14.77;12.13;;;;;;;15.88;100.00;96630.75;5025654;28;20036;-88
2023/05/08 08:15:02;;;;;;;13.53;11.33;;;;;;;15.52;100.00;96633.25;5036506;28;20044;-88
2023/05/08 08:17:33;;;;;;;15.00;12.00;;;;;;;15.44;100.00;96630.69;5011602;28;20043;-88
2023/05/08 08:19:58;;;;;;;16.27;14.03;;;;;;;15.77;100.00;96633.88;5027001;28;20048;-88
2023/05/08 08:22:25;;;;;;;14.03;11.57;;;;;;;15.93;100.00;96625.72;5041400;28;20033;-88
2023/05/08 08:24:55;;;;;;;20.07;12.10;;;;;;;16.06;100.00;96627.72;5021181;28;20051;-88
2023/05/08 08:27:21;;;;;;;17.67;12.17;;;;;;;15.92;100.00;96628.56;5038622;28;20029;-87
2023/05/08 08:29:56;;;;;;;14.60;12.97;;;;;;;15.85;100.00;96638.25;5028027;28;20029;-88
2023/05/08 08:32:21;;;;;;;14.05;11.93;;;;;;;15.61;100.00;96640.13;5017575;28;20044;-87
2023/05/08 08:34:47;;;;;;;14.87;12.50;;;;;;;15.85;100.00;96639.06;5024838;28;20038;-89
2023/05/08 08:37:19;;;;;;;14.35;12.45;;;;;;;15.89;100.00;96637.69;5037471;28;20028;-88
2023/05/08 08:40:02;;;;;;;15.90;12.90;;;;;;;15.55;100.00;96638.19;5031205;28;20145;-88
2023/05/08 08:42:35;;;;;;;14.65;12.48;;;;;;;15.52;100.00;96643.84;5021531;28;20255;-88
2023/05/08 08:45:01;;;;;;;13.85;12.38;;;;;;;15.44;100.00;96638.63;5032562;28;20124;-88
2023/05/08 08:47:36;;;;;;;15.93;13.60;;;;;;;15.48;100.00;96637.25;5019524;28;20025;-88
2023/05/08 08:50:12;;;;;;;15.70;12.80;;;;;;;15.54;100.00;96636.53;5018882;28;20040;-88
2023/05/08 08:53:01;;;;;;;17.20;13.13;;;;;;;15.74;100.00;96637.69;5022748;28;20125;-88
2023/05/08 08:55:30;;;;;;;15.47;12.73;;;;;;;15.70;100.00;96646.22;5014457;28;20033;-88
2023/05/08 08:58:30;;;;;;;14.67;12.60;;;;;;;15.66;100.00;96643.09;5015330;28;20396;-88
2023/05/08 09:00:59;;;;;;;15.93;13.63;;;;;;;15.84;100.00;96649.88;5005970;28;20092;-88
2023/05/08 09:03:25;;;;;;;15.30;13.70;;;;;;;15.98;100.00;96644.56;5017805;28;20088;-88
2023/05/08 09:05:52;;;;;;;17.30;13.57;;;;;;;15.64;100.00;96644.25;5039631;28;20037;-87
2023/05/08 09:08:27;;;;;;;18.13;13.68;;;;;;;15.35;100.00;96650.28;5014264;28;20729;-88
2023/05/08 09:11:01;;;;;;;16.52;14.20;;;;;;;15.54;100.00;96645.31;5026292;28;20113;-88
2023/05/08 09:13:28;;;;;;;16.52;14.25;;;;;;;15.67;100.00;96651.88;5029078;28;20037;-88
2023/05/08 09:15:56;;;;;;;15.67;13.77;;;;;;;15.72;100.00;96652.94;5018918;28;20041;-88
2023/05/08 09:18:21;;;;;;;16.70;14.07;;;;;;;15.39;100.00;96667.47;5022547;28;20501;-88
2023/05/08 09:20:49;;;;;;;16.23;14.43;;;;;;;15.74;100.00;96666.03;5024495;28;20033;-87
2023/05/08 09:23:26;;;;;;;16.27;14.27;;;;;;;15.91;100.00;96664.06;5031083;28;20258;-87
2023/05/08 09:25:52;;;;;;;17.08;13.88;;;;;;;15.51;100.00;96660.75;5015124;28;20135;-88
2023/05/08 09:28:24;;;;;;;15.83;13.80;;;;;;;15.83;100.00;96664.97;5027646;28;20090;-87
2023/05/08 09:30:59;;;;;;;17.27;15.48;;;;;;;15.87;100.00;96662.78;5030776;28;20025;-87
2023/05/08 09:33:28;;;;;;;18.52;15.02;;;;;;;16.13;100.00;96660.50;5024174;28;20476;-87
2023/05/08 09:35:55;;;;;;;18.15;15.35;;;;;;;16.12;100.00;96663.31;5024752;28;20072;-87
2023/05/08 09:38:40;;;;;;;16.92;15.07;;;;;;;16.12;100.00;96660.66;5035535;28;20036;-87
2023/05/08 09:41:11;;;;;;;17.13;15.30;;;;;;;16.15;100.00;96669.06;5031978;28;20078;-87
2023/05/08 09:43:38;;;;;;;17.95;14.60;;;;;;;16.03;100.00;96670.56;5038330;28;20047;-88
2023/05/08 09:46:23;;;;;;;18.08;15.57;;;;;;;16.38;100.00;96668.16;5035040;28;20423;-87
2023/05/08 09:48:52;;;;;;;16.23;13.55;;;;;;;15.60;100.00;96675.59;5040412;28;20048;-87
2023/05/08 09:51:28;;;;;;;18.02;14.05;;;;;;;15.65;100.00;96681.16;5029380;28;20067;-87
2023/05/08 09:53:55;;;;;;;19.35;15.95;;;;;;;15.72;100.00;96683.94;5038414;28;20112;-87
2023/05/08 09:56:38;;;;;;;16.85;15.05;;;;;;;15.86;100.00;96682.31;5028746;28;20047;-87
2023/05/08 09:59:21;;;;;;;15.60;13.80;;;;;;;15.73;100.00;96683.78;5028495;28;20021;-87
2023/05/08 10:01:50;;;;;;;16.15;13.50;;;;;;;15.77;100.00;96679.75;5024365;28;20414;-86
2023/05/08 10:04:15;;;;;;;18.55;14.57;;;;;;;16.02;100.00;96687.47;5018542;28;20056;-87
2023/05/08 10:06:41;;;;;;;17.60;14.55;;;;;;;16.18;100.00;96683.81;5037732;28;20044;-87
2023/05/08 10:09:10;;;;;;;16.02;13.98;;;;;;;16.20;100.00;96684.47;5042488;28;20033;-87
2023/05/08 10:11:40;;;;;;;17.75;14.43;;;;;;;16.34;100.00;96682.81;5018904;28;20021;-87
2023/05/08 10:14:10;;;;;;;18.08;14.55;;;;;;;15.99;100.00;96687.81;5019899;28;20451;-87
2023/05/08 10:16:42;;;;;;;15.60;13.05;;;;;;;15.94;100.00;96684.91;5039688;28;20056;-92
2023/05/08 10:19:14;;;;;;;15.10;13.30;;;;;;;15.56;100.00;96687.56;5013885;28;20036;-86
2023/05/08 10:21:55;;;;;;;15.25;13.45;;;;;;;15.90;100.00;96686.28;5012577;28;20037;-85
2023/05/08 10:24:36;;;;;;;15.00;12.98;;;;;;;16.04;100.00;96693.41;5021692;28;20037;-85
2023/05/08 10:27:23;;;;;;;17.92;14.15;;;;;;;15.95;100.00;96691.84;5027815;28;20033;-85
2023/05/08 10:29:53;;;;;;;16.00;13.13;;;;;;;16.13;100.00;96687.03;5024596;28;20034;-90
2023/05/08 10:32:21;;;;;;;15.85;13.40;;;;;;;15.94;100.00;96690.22;5037878;28;20075;-87
2023/05/08 10:34:58;;;;;;;16.50;14.57;;;;;;;16.14;100.00;96686.00;5036612;28;20036;-89
2023/05/08 10:37:28;;;;;;;17.77;14.73;;;;;;;16.32;100.00;96682.16;5043690;28;20108;-89
2023/05/08 10:39:58;;;;;;;18.23;14.68;;;;;;;16.05;100.00;96683.63;5017541;28;20029;-88
2023/05/08 10:42:26;;;;;;;16.25;14.40;;;;;;;15.71;100.00;96691.09;5015979;28;20777;-89
2023/05/08 10:44:53;;;;;;;16.88;14.45;;;;;;;15.86;100.00;96692.94;5039832;28;20595;-89
2023/05/08 10:47:34;;;;;;;19.38;16.50;;;;;;;15.95;100.00;96691.84;5048353;28;20036;-89
2023/05/08 10:50:05;;;;;;;18.90;16.90;;;;;;;15.72;100.00;96692.72;5034490;28;20037;-88
2023/05/08 10:53:04;;;;;;;19.58;17.42;;;;;;;15.79;100.00;96692.81;5024451;28;20090;-89
2023/05/08 10:55:32;;;;;;;20.55;16.55;;;;;;;15.40;100.00;96688.53;5016702;28;20738;-89
2023/05/08 10:58:27;;;;;;;19.17;17.13;;;;;;;15.46;100.00;96692.25;5017370;28;20092;-89
2023/05/08 11:00:58;;;;;;;18.52;16.52;;;;;;;15.53;100.00;96690.56;5023751;28;20060;-89
2023/05/08 11:03:26;;;;;;;20.00;15.75;;;;;;;15.29;100.00;96692.41;5015362;28;20040;-89
2023/05/08 11:05:59;;;;;;;16.50;14.77;;;;;;;15.19;100.00;96693.63;5018852;28;20029;-89
2023/05/08 11:08:29;;;;;;;15.90;14.20;;;;;;;15.36;100.00;96689.88;5018132;28;20032;-89
2023/05/08 11:11:00;;;;;;;19.38;15.10;;;;;;;15.67;100.00;96681.03;5045969;28;20082;-89
2023/05/08 11:13:54;;;;;;;15.55;13.82;;;;;;;15.79;100.00;96680.41;5047135;28;20045;-89
2023/05/08 11:16:52;;;;;;;10.88;9.57;;;;;;;16.05;100.00;96687.09;5026175;28;20033;-89
2023/05/08 11:19:21;;;;;;;14.52;12.90;;;;;;;15.67;100.00;96689.81;5006768;28;20033;-90
2023/05/08 11:22:18;;;;;;;15.20;12.95;;;;;;;15.89;100.00;96679.31;5026538;28;20045;-89
2023/05/08 11:25:22;;;;;;;15.95;13.82;;;;;;;16.29;100.00;96683.34;5022489;28;20025;-89
2023/05/08 11:27:49;;;;;;;14.80;13.20;;;;;;;16.07;100.00;96690.41;5026525;28;20033;-89
2023/05/08 11:30:36;;;;;;;20.65;17.20;;;;;;;16.35;100.00;96684.44;5030747;28;20540;-89
2023/05/08 11:33:02;;;;;;;15.40;11.77;;;;;;;16.65;100.00;96671.97;5023738;28;20108;-90
2023/05/08 11:35:40;;;;;;;15.57;12.00;;;;;;;16.22;100.00;96675.28;5037960;28;20105;-89
2023/05/08 11:38:22;;;;;;;13.88;12.25;;;;;;;16.75;100.00;96683.13;5029122;28;20035;-90